Time;durP1;ratioP1;P1;durP2;ratioP2;P2;SDS_P1;SDS_P2;PMS_P1;PMS_P2;Temp;Humidity;BMP_temperature;BMP_pressure;BME280_temperature;BME280_humidity;BME280_pressure;Samples;Min_cycle;Max_cycle;Signal;HPM_P1;HPM_P2
2022/09/04 00:01:28;;;;;;;23.90;7.07;;;;;;;;;;4970307;28;20065;-62
2022/09/04 00:03:59;;;;;;;50.17;9.85;;;;;;;;;;4969382;28;20051;-62
2022/09/04 00:06:30;;;;;;;43.05;8.73;;;;;;;;;;4969725;28;20051;-62
2022/09/04 00:08:57;;;;;;;27.48;6.82;;;;;;;;;;4970216;28;20134;-60
2022/09/04 00:11:30;;;;;;;28.90;8.50;;;;;;;;;;4970215;28;20069;-62
2022/09/04 00:13:59;;;;;;;33.73;7.37;;;;;;;;;;4969887;28;20050;-62
2022/09/04 00:16:31;;;;;;;24.48;7.65;;;;;;;;;;4970999;28;20416;-63
2022/09/04 00:19:12;;;;;;;32.08;7.93;;;;;;;;;;4970076;28;20066;-62
2022/09/04 00:21:55;;;;;;;32.53;7.90;;;;;;;;;;4969921;28;20054;-62
2022/09/04 00:24:28;;;;;;;40.67;9.60;;;;;;;;;;4954200;28;20051;-62
2022/09/04 00:26:55;;;;;;;;;;;;;;;;;;4991061;28;20407;-60
2022/09/04 00:29:40;;;;;;;42.50;9.05;;;;;;;;;;5056627;28;19924;-63
2022/09/04 00:32:19;;;;;;;28.13;7.50;;;;;;;;;;5074415;28;20037;-63
2022/09/04 00:34:51;;;;;;;45.08;8.82;;;;;;;;;;5037388;28;20053;-63
2022/09/04 00:37:21;;;;;;;20.37;6.70;;;;;;;;;;5055359;28;20588;-63
2022/09/04 00:39:55;;;;;;;34.28;7.53;;;;;;;;;;5057287;28;20075;-63
2022/09/04 00:42:40;;;;;;;25.02;7.13;;;;;;;;;;5074675;28;20060;-61
2022/09/04 00:45:26;;;;;;;26.58;6.95;;;;;;;;;;5074777;28;20063;-61
2022/09/04 00:48:17;;;;;;;33.45;8.63;;;;;;;;;;5056814;28;20045;-61
2022/09/04 00:50:54;;;;;;;37.90;8.82;;;;;;;;;;5074864;28;20040;-61
2022/09/04 00:53:23;;;;;;;27.42;7.35;;;;;;;;;;5074518;28;20074;-61
2022/09/04 00:55:57;;;;;;;58.78;11.27;;;;;;;;;;5072458;28;20040;-63
2022/09/04 00:58:33;;;;;;;35.33;8.68;;;;;;;;;;5052834;28;20143;-62
2022/09/04 01:01:00;;;;;;;37.95;9.20;;;;;;;;;;5055784;28;20076;-61
2022/09/04 01:03:35;;;;;;;31.50;7.97;;;;;;;;;;5074054;28;20074;-63
2022/09/04 01:06:17;;;;;;;34.70;9.18;;;;;;;;;;5055925;28;20199;-65
2022/09/04 01:08:54;;;;;;;41.38;8.88;;;;;;;;;;5074260;28;20042;-63
2022/09/04 01:11:24;;;;;;;34.88;9.30;;;;;;;;;;5073690;28;20040;-63
2022/09/04 01:13:54;;;;;;;50.28;10.77;;;;;;;;;;5071373;28;20059;-62
2022/09/04 01:16:25;;;;;;;30.40;7.88;;;;;;;;;;5053833;28;20131;-64
2022/09/04 01:19:01;;;;;;;40.75;8.75;;;;;;;;;;5055871;28;20041;-62
2022/09/04 01:21:46;;;;;;;28.52;8.23;;;;;;;;;;5055846;28;20532;-63
2022/09/04 01:24:15;;;;;;;44.60;9.55;;;;;;;;;;5073426;28;20047;-61
2022/09/04 01:26:54;;;;;;;25.17;7.20;;;;;;;;;;5073533;28;20047;-61
2022/09/04 01:29:39;;;;;;;41.17;9.27;;;;;;;;;;5073889;28;20040;-61
2022/09/04 01:32:24;;;;;;;31.40;8.85;;;;;;;;;;5073140;28;20045;-61
2022/09/04 01:35:09;;;;;;;49.40;9.88;;;;;;;;;;5054216;28;20045;-62
2022/09/04 01:37:40;;;;;;;27.17;6.72;;;;;;;;;;5070392;28;20048;-62
2022/09/04 01:40:13;;;;;;;38.67;9.07;;;;;;;;;;5072680;28;20044;-63
2022/09/04 01:42:45;;;;;;;31.20;8.63;;;;;;;;;;5073359;28;20067;-62
2022/09/04 01:45:12;;;;;;;32.10;8.48;;;;;;;;;;5054998;28;20331;-61
2022/09/04 01:47:44;;;;;;;30.60;7.32;;;;;;;;;;5073355;28;20071;-62
2022/09/04 01:50:14;;;;;;;24.42;7.63;;;;;;;;;;5055836;28;20130;-61
2022/09/04 01:52:46;;;;;;;65.03;10.20;;;;;;;;;;5052309;28;20143;-62
2022/09/04 01:55:13;;;;;;;20.20;7.15;;;;;;;;;;5072327;28;20131;-62
2022/09/04 01:57:45;;;;;;;27.13;8.27;;;;;;;;;;5072959;28;20044;-62
2022/09/04 02:00:17;;;;;;;26.75;8.23;;;;;;;;;;5039153;28;20064;-62
2022/09/04 02:03:02;;;;;;;39.42;9.57;;;;;;;;;;5073156;28;20488;-61
2022/09/04 02:05:29;;;;;;;29.23;8.90;;;;;;;;;;5055658;28;20123;-61
2022/09/04 02:07:56;;;;;;;30.30;8.43;;;;;;;;;;5072045;28;20119;-61
2022/09/04 02:10:41;;;;;;;53.10;11.38;;;;;;;;;;5070518;28;20037;-61
2022/09/04 02:13:28;;;;;;;29.63;8.43;;;;;;;;;;5070807;28;20132;-61
2022/09/04 02:16:13;;;;;;;48.65;10.13;;;;;;;;;;5054703;28;20048;-61
2022/09/04 02:18:49;;;;;;;30.27;8.75;;;;;;;;;;5072381;28;20390;-61
2022/09/04 02:21:22;;;;;;;17.02;7.50;;;;;;;;;;5073758;28;20536;-61
2022/09/04 02:24:03;;;;;;;33.90;8.88;;;;;;;;;;5054980;28;20374;-61
2022/09/04 02:26:44;;;;;;;34.70;9.63;;;;;;;;;;5073060;28;20476;-61
2022/09/04 02:29:21;;;;;;;50.72;10.43;;;;;;;;;;5072971;28;20361;-60
2022/09/04 02:31:48;;;;;;;40.17;9.60;;;;;;;;;;5070476;28;20072;-61
2022/09/04 02:34:16;;;;;;;19.17;7.50;;;;;;;;;;5067373;28;20044;-62
2022/09/04 02:36:49;;;;;;;41.88;9.43;;;;;;;;;;5072852;28;20070;-61
2022/09/04 02:39:16;;;;;;;30.63;9.20;;;;;;;;;;5073425;28;20056;-61
2022/09/04 02:42:02;;;;;;;35.65;8.52;;;;;;;;;;5072552;28;20039;-61
2022/09/04 02:44:29;;;;;;;29.58;8.65;;;;;;;;;;5055382;28;20040;-62
2022/09/04 02:47:04;;;;;;;40.47;9.15;;;;;;;;;;5071616;28;20052;-62
2022/09/04 02:50:00;;;;;;;37.97;9.55;;;;;;;;;;5069377;28;20040;-62
2022/09/04 02:52:44;;;;;;;34.47;9.18;;;;;;;;;;5047638;28;20548;-62
2022/09/04 02:55:16;;;;;;;28.55;7.60;;;;;;;;;;5053409;28;20090;-62
2022/09/04 02:57:55;;;;;;;36.07;8.57;;;;;;;;;;5072223;28;20107;-62
2022/09/04 03:00:42;;;;;;;21.77;6.95;;;;;;;;;;5072699;28;20586;-63
2022/09/04 03:03:15;;;;;;;35.75;7.72;;;;;;;;;;5037943;28;20121;-63
2022/09/04 03:05:57;;;;;;;25.92;7.13;;;;;;;;;;5072399;28;20041;-61
2022/09/04 03:08:35;;;;;;;36.15;9.18;;;;;;;;;;5073444;28;20085;-61
2022/09/04 03:11:05;;;;;;;45.90;8.35;;;;;;;;;;5072013;28;20055;-60
2022/09/04 03:13:40;;;;;;;56.15;9.98;;;;;;;;;;5066593;28;20136;-60
2022/09/04 03:16:30;;;;;;;28.42;8.23;;;;;;;;;;5070663;28;20127;-61
2022/09/04 03:19:03;;;;;;;46.13;9.38;;;;;;;;;;5076038;28;20040;-62
2022/09/04 03:21:44;;;;;;;25.23;7.30;;;;;;;;;;5076401;28;20040;-61
2022/09/04 03:24:16;;;;;;;39.45;8.38;;;;;;;;;;5076495;28;20036;-61
2022/09/04 03:26:49;;;;;;;32.97;7.57;;;;;;;;;;5057794;28;20051;-61
2022/09/04 03:29:15;;;;;;;36.38;8.45;;;;;;;;;;5057862;28;20052;-60
2022/09/04 03:32:01;;;;;;;34.42;8.48;;;;;;;;;;5072830;28;20115;-62
2022/09/04 03:34:46;;;;;;;49.53;9.55;;;;;;;;;;5072312;28;20048;-62
2022/09/04 03:37:16;;;;;;;21.90;7.45;;;;;;;;;;5057793;28;20040;-62
2022/09/04 03:39:58;;;;;;;37.15;8.70;;;;;;;;;;5075697;28;20090;-61
2022/09/04 03:42:26;;;;;;;29.20;8.10;;;;;;;;;;5075412;28;20040;-62
2022/09/04 03:45:01;;;;;;;30.42;8.63;;;;;;;;;;5057576;28;20040;-62
2022/09/04 03:47:44;;;;;;;32.83;9.05;;;;;;;;;;5057464;28;20041;-62
2022/09/04 03:50:10;;;;;;;35.10;9.98;;;;;;;;;;5075630;28;20052;-61
2022/09/04 03:52:40;;;;;;;55.97;9.95;;;;;;;;;;5071826;28;20424;-61
2022/09/04 03:55:12;;;;;;;31.95;9.20;;;;;;;;;;5075410;28;20048;-61
2022/09/04 03:57:45;;;;;;;33.90;8.27;;;;;;;;;;5075075;28;20524;-61
2022/09/04 04:00:19;;;;;;;32.33;7.47;;;;;;;;;;5075262;28;20489;-62
2022/09/04 04:02:49;;;;;;;28.83;8.80;;;;;;;;;;5075217;28;20097;-61
2022/09/04 04:05:19;;;;;;;28.63;9.77;;;;;;;;;;5057969;28;20070;-62
2022/09/04 04:07:46;;;;;;;56.75;20.02;;;;;;;;;;5072906;28;20119;-62
2022/09/04 04:10:21;;;;;;;66.40;32.63;;;;;;;;;;5080136;28;20040;-62
2022/09/04 04:12:51;;;;;;;68.57;36.13;;;;;;;;;;5059355;28;20051;-62
2022/09/04 04:15:20;;;;;;;54.03;22.25;;;;;;;;;;5075017;28;20124;-61
2022/09/04 04:18:05;;;;;;;80.93;21.35;;;;;;;;;;5074739;28;20119;-62
2022/09/04 04:20:33;;;;;;;107.13;20.70;;;;;;;;;;5056916;28;20477;-62
2022/09/04 04:23:09;;;;;;;114.80;18.50;;;;;;;;;;5073677;28;20040;-63
2022/09/04 04:25:36;;;;;;;113.75;16.15;;;;;;;;;;5071888;28;20067;-63
2022/09/04 04:28:13;;;;;;;67.00;10.63;;;;;;;;;;5056753;28;20059;-63
2022/09/04 04:30:46;;;;;;;32.58;7.95;;;;;;;;;;5075470;28;20040;-64
2022/09/04 04:33:15;;;;;;;26.77;8.35;;;;;;;;;;5074353;28;20451;-63
2022/09/04 04:35:53;;;;;;;46.67;9.20;;;;;;;;;;5075144;28;20064;-62
2022/09/04 04:38:23;;;;;;;26.45;8.45;;;;;;;;;;5075309;28;20032;-63
2022/09/04 04:41:06;;;;;;;45.42;9.93;;;;;;;;;;5072451;28;20613;-62
2022/09/04 04:43:45;;;;;;;31.10;8.45;;;;;;;;;;5071034;28;20477;-61
2022/09/04 04:46:33;;;;;;;42.72;10.38;;;;;;;;;;5072159;28;20124;-62
2022/09/04 04:49:03;;;;;;;31.02;8.13;;;;;;;;;;5056333;28;20040;-61
2022/09/04 04:51:48;;;;;;;39.35;10.98;;;;;;;;;;5073913;28;20155;-62
2022/09/04 04:54:34;;;;;;;24.42;7.43;;;;;;;;;;5074604;28;20101;-62
2022/09/04 04:57:16;;;;;;;33.38;8.60;;;;;;;;;;5074585;28;20135;-64
2022/09/04 05:00:05;;;;;;;33.13;7.38;;;;;;;;;;5074868;28;20112;-64
2022/09/04 05:02:48;;;;;;;22.40;5.38;;;;;;;;;;5074397;28;20055;-63
2022/09/04 05:05:21;;;;;;;26.75;7.15;;;;;;;;;;5075026;28;20048;-63
2022/09/04 05:07:47;;;;;;;37.00;7.93;;;;;;;;;;5087363;28;20474;-61
2022/09/04 05:10:20;;;;;;;28.20;8.30;;;;;;;;;;5072916;28;20040;-61
2022/09/04 05:12:49;;;;;;;28.35;8.05;;;;;;;;;;5073803;28;20477;-61
2022/09/04 05:15:34;;;;;;;26.05;7.60;;;;;;;;;;5074184;28;20568;-62
2022/09/04 05:18:27;;;;;;;25.77;7.50;;;;;;;;;;5074123;28;20051;-61
2022/09/04 05:20:57;;;;;;;44.75;10.00;;;;;;;;;;5074271;28;20090;-61
2022/09/04 05:23:42;;;;;;;18.63;7.18;;;;;;;;;;5074507;28;20051;-61
2022/09/04 05:26:11;;;;;;;51.88;10.25;;;;;;;;;;5055746;28;20036;-61
2022/09/04 05:28:38;;;;;;;17.23;7.60;;;;;;;;;;5069484;28;20051;-61
2022/09/04 05:31:20;;;;;;;28.20;8.23;;;;;;;;;;5073164;28;20055;-61
2022/09/04 05:34:02;;;;;;;23.52;7.40;;;;;;;;;;5072521;28;20048;-62
2022/09/04 05:36:44;;;;;;;25.98;8.73;;;;;;;;;;5073535;28;20045;-63
2022/09/04 05:39:24;;;;;;;15.57;7.38;;;;;;;;;;5073539;28;20062;-60
2022/09/04 05:42:29;;;;;;;48.83;11.40;;;;;;;;;;5073152;28;20036;-60
2022/09/04 05:44:56;;;;;;;49.78;11.57;;;;;;;;;;4971372;28;20049;-62
2022/09/04 05:47:32;;;;;;;29.17;10.35;;;;;;;;;;4972284;28;20046;-62
2022/09/04 05:50:01;;;;;;;46.03;10.63;;;;;;;;;;4970492;28;20054;-60
2022/09/04 05:52:39;;;;;;;36.28;9.77;;;;;;;;;;4969908;28;20061;-62
2022/09/04 05:55:12;;;;;;;30.65;10.07;;;;;;;;;;4968855;28;20058;-61
2022/09/04 05:58:11;;;;;;;34.80;9.70;;;;;;;;;;4968259;28;20219;-60
2022/09/04 06:00:48;;;;;;;29.48;9.18;;;;;;;;;;4902523;29;20076;-59
2022/09/04 06:03:20;;;;;;;23.65;8.38;;;;;;;;;;4894507;29;20139;-59
2022/09/04 06:05:59;;;;;;;28.27;8.85;;;;;;;;;;4906475;29;20075;-61
2022/09/04 06:08:34;;;;;;;25.70;7.40;;;;;;;;;;4907290;29;20060;-61
2022/09/04 06:11:19;;;;;;;37.20;9.02;;;;;;;;;;4907622;29;20103;-60
2022/09/04 06:13:46;;;;;;;68.85;11.20;;;;;;;;;;4906788;29;20040;-61
2022/09/04 06:16:12;;;;;;;24.27;8.15;;;;;;;;;;4960697;28;20090;-59
2022/09/04 06:18:51;;;;;;;29.13;8.80;;;;;;;;;;4983397;28;20046;-59
2022/09/04 06:21:33;;;;;;;15.93;6.47;;;;;;;;;;4980169;28;20484;-59
2022/09/04 06:24:18;;;;;;;44.38;9.57;;;;;;;;;;4966269;28;20108;-62
2022/09/04 06:26:52;;;;;;;22.25;7.07;;;;;;;;;;4983041;28;20129;-60
2022/09/04 06:29:37;;;;;;;49.20;9.82;;;;;;;;;;4982223;28;20145;-61
2022/09/04 06:32:13;;;;;;;24.02;6.82;;;;;;;;;;4982786;28;20447;-60
2022/09/04 06:34:42;;;;;;;23.58;8.02;;;;;;;;;;4971405;28;20054;-61
2022/09/04 06:37:35;;;;;;;19.58;6.82;;;;;;;;;;5033038;28;20136;-60
2022/09/04 06:40:01;;;;;;;28.90;7.80;;;;;;;;;;5045462;28;20060;-61
2022/09/04 06:42:49;;;;;;;32.78;8.70;;;;;;;;;;5046904;28;20041;-59
2022/09/04 06:45:28;;;;;;;35.75;9.25;;;;;;;;;;5045479;28;20044;-59
2022/09/04 06:48:13;;;;;;;35.60;8.75;;;;;;;;;;5047935;28;20095;-59
2022/09/04 06:50:59;;;;;;;11.52;6.38;;;;;;;;;;5049010;28;20116;-59
2022/09/04 06:53:32;;;;;;;31.13;7.95;;;;;;;;;;5051031;28;20041;-59
2022/09/04 06:56:05;;;;;;;22.58;7.35;;;;;;;;;;5052264;28;20510;-59
2022/09/04 06:58:42;;;;;;;21.95;6.93;;;;;;;;;;5040526;28;20103;-59
2022/09/04 07:01:11;;;;;;;16.27;5.70;;;;;;;;;;5051046;28;20045;-57
2022/09/04 07:03:41;;;;;;;20.67;6.40;;;;;;;;;;5051288;28;20049;-59
2022/09/04 07:06:11;;;;;;;26.90;7.32;;;;;;;;;;5051002;28;20112;-59
2022/09/04 07:08:44;;;;;;;12.75;5.43;;;;;;;;;;5051564;28;20102;-59
2022/09/04 07:11:30;;;;;;;20.23;6.35;;;;;;;;;;5051049;28;20052;-59
2022/09/04 07:13:57;;;;;;;28.08;8.13;;;;;;;;;;5051641;28;20505;-58
2022/09/04 07:16:42;;;;;;;23.42;8.98;;;;;;;;;;5052887;28;20049;-58
2022/09/04 07:19:14;;;;;;;11.20;5.90;;;;;;;;;;5050810;28;20041;-58
2022/09/04 07:21:43;;;;;;;21.85;6.00;;;;;;;;;;5051999;28;20075;-58
2022/09/04 07:24:28;;;;;;;23.20;6.53;;;;;;;;;;5052487;28;20782;-59
2022/09/04 07:27:09;;;;;;;34.45;7.93;;;;;;;;;;5050050;28;20393;-59
2022/09/04 07:29:40;;;;;;;19.95;5.65;;;;;;;;;;5052190;28;20556;-58
2022/09/04 07:32:11;;;;;;;35.85;5.32;;;;;;;;;;5051567;28;20049;-58
2022/09/04 07:34:56;;;;;;;34.33;7.25;;;;;;;;;;5031770;28;20144;-59
2022/09/04 07:37:30;;;;;;;29.25;13.60;;;;;;;;;;5038411;28;20041;-58
2022/09/04 07:40:08;;;;;;;25.73;8.95;;;;;;;;;;5038159;28;20073;-59
2022/09/04 07:42:55;;;;;;;19.30;5.45;;;;;;;;;;5038120;28;20129;-57
2022/09/04 07:45:24;;;;;;;98.30;12.55;;;;;;;;;;4975056;28;20053;-60
2022/09/04 07:47:54;;;;;;;55.75;8.63;;;;;;;;;;4989276;28;20042;-59
2022/09/04 07:50:46;;;;;;;35.55;6.78;;;;;;;;;;4988416;28;20058;-59
2022/09/04 07:53:17;;;;;;;29.13;7.20;;;;;;;;;;4910683;29;20556;-59
2022/09/04 07:55:46;;;;;;;24.38;7.10;;;;;;;;;;4903350;29;20060;-59
2022/09/04 07:58:27;;;;;;;11.95;5.13;;;;;;;;;;4910612;29;20068;-60
2022/09/04 08:01:12;;;;;;;25.38;6.22;;;;;;;;;;4909008;29;20055;-59
2022/09/04 08:03:59;;;;;;;122.05;12.88;;;;;;;;;;4907133;29;20068;-59
2022/09/04 08:06:29;;;;;;;32.15;6.20;;;;;;;;;;4907816;29;20051;-59
2022/09/04 08:08:55;;;;;;;41.63;7.60;;;;;;;;;;4907760;29;20098;-59
2022/09/04 08:11:27;;;;;;;32.13;6.80;;;;;;;;;;4907808;29;20057;-59
2022/09/04 08:14:12;;;;;;;36.47;7.78;;;;;;;;;;4909530;29;20087;-59
2022/09/04 08:16:57;;;;;;;21.35;5.93;;;;;;;;;;4909806;29;20647;-59
2022/09/04 08:19:30;;;;;;;22.83;6.32;;;;;;;;;;4902752;29;20136;-59
2022/09/04 08:21:57;;;;;;;20.67;5.72;;;;;;;;;;4917515;28;20038;-59
2022/09/04 08:24:42;;;;;;;15.07;5.35;;;;;;;;;;4970133;28;20072;-57
2022/09/04 08:27:08;;;;;;;28.65;6.50;;;;;;;;;;4980508;28;20129;-58
2022/09/04 08:29:41;;;;;;;20.45;5.35;;;;;;;;;;4997634;28;20132;-57
2022/09/04 08:32:18;;;;;;;90.28;9.35;;;;;;;;;;5043048;28;20072;-57
2022/09/04 08:35:03;;;;;;;27.40;5.93;;;;;;;;;;5043149;28;20048;-57
2022/09/04 08:37:49;;;;;;;24.10;5.75;;;;;;;;;;5043469;28;20481;-58
2022/09/04 08:40:24;;;;;;;14.35;4.82;;;;;;;;;;5048440;28;20072;-58
2022/09/04 08:42:50;;;;;;;97.43;55.58;;;;;;;;;;5046856;28;20520;-58
2022/09/04 08:45:32;;;;;;;31.58;13.13;;;;;;;;;;5044183;28;20041;-57
2022/09/04 08:48:10;;;;;;;21.88;6.05;;;;;;;;;;5050646;28;20052;-58
2022/09/04 08:50:54;;;;;;;23.40;5.43;;;;;;;;;;5037018;28;20041;-58
2022/09/04 08:53:41;;;;;;;46.55;7.97;;;;;;;;;;5070500;28;20065;-58
2022/09/04 08:56:17;;;;;;;39.00;6.22;;;;;;;;;;5073803;28;20040;-58
2022/09/04 08:58:43;;;;;;;23.92;6.05;;;;;;;;;;5066971;28;20421;-58
2022/09/04 09:01:27;;;;;;;20.17;4.63;;;;;;;;;;5073987;28;20044;-59
2022/09/04 09:04:00;;;;;;;69.22;10.75;;;;;;;;;;5074451;28;20040;-59
2022/09/04 09:06:45;;;;;;;17.23;5.07;;;;;;;;;;5074559;28;20037;-58
2022/09/04 09:09:30;;;;;;;36.90;6.97;;;;;;;;;;5073718;28;20067;-61
2022/09/04 09:11:59;;;;;;;36.75;7.25;;;;;;;;;;5073771;28;20123;-61
2022/09/04 09:14:45;;;;;;;54.28;9.23;;;;;;;;;;5073315;28;20074;-59
2022/09/04 09:17:12;;;;;;;14.85;4.90;;;;;;;;;;5074305;28;20110;-60
2022/09/04 09:19:39;;;;;;;26.15;5.97;;;;;;;;;;5070675;28;20448;-60
2022/09/04 09:22:17;;;;;;;33.83;6.30;;;;;;;;;;5074109;28;20083;-60
2022/09/04 09:25:02;;;;;;;55.28;24.70;;;;;;;;;;5073659;28;20040;-60
2022/09/04 09:27:35;;;;;;;37.20;7.47;;;;;;;;;;5073604;28;20155;-60
2022/09/04 09:30:11;;;;;;;37.75;6.97;;;;;;;;;;5073730;28;20044;-61
2022/09/04 09:33:05;;;;;;;17.23;6.70;;;;;;;;;;5074431;28;20051;-60
2022/09/04 09:35:54;;;;;;;222.23;19.05;;;;;;;;;;5073716;28;20028;-61
2022/09/04 09:38:23;;;;;;;38.17;8.18;;;;;;;;;;5073533;28;20119;-61
2022/09/04 09:41:16;;;;;;;45.03;8.45;;;;;;;;;;5070493;28;20041;-61
2022/09/04 09:44:01;;;;;;;24.17;6.63;;;;;;;;;;5065803;28;20178;-62
2022/09/04 09:46:28;;;;;;;53.78;8.40;;;;;;;;;;5068766;28;20408;-61
2022/09/04 09:49:02;;;;;;;25.52;6.68;;;;;;;;;;5071708;28;20040;-60
2022/09/04 09:51:49;;;;;;;20.70;8.00;;;;;;;;;;5073881;28;20055;-60
2022/09/04 09:54:16;;;;;;;28.77;7.55;;;;;;;;;;5073193;28;20044;-60
2022/09/04 09:57:01;;;;;;;35.67;7.53;;;;;;;;;;5072515;28;20404;-60
2022/09/04 09:59:33;;;;;;;36.58;7.65;;;;;;;;;;5073566;28;20047;-60
2022/09/04 10:02:15;;;;;;;35.47;7.03;;;;;;;;;;5071826;28;20036;-60
2022/09/04 10:04:48;;;;;;;34.92;6.60;;;;;;;;;;5069275;28;20121;-60
2022/09/04 10:07:35;;;;;;;28.50;6.22;;;;;;;;;;5073295;28;20124;-60
2022/09/04 10:10:20;;;;;;;41.35;7.68;;;;;;;;;;5073219;28;20044;-60
2022/09/04 10:12:56;;;;;;;24.35;6.68;;;;;;;;;;5072907;28;20121;-59
2022/09/04 10:15:41;;;;;;;35.90;7.32;;;;;;;;;;5069490;28;20064;-59
2022/09/04 10:18:10;;;;;;;28.73;6.07;;;;;;;;;;5065207;28;20045;-59
2022/09/04 10:20:55;;;;;;;225.90;20.00;;;;;;;;;;5070864;28;20050;-60
2022/09/04 10:23:22;;;;;;;24.42;5.72;;;;;;;;;;5069197;28;20116;-60
2022/09/04 10:25:58;;;;;;;50.47;8.75;;;;;;;;;;5052066;28;20044;-60
2022/09/04 10:28:43;;;;;;;45.10;7.25;;;;;;;;;;5070902;28;20044;-59
2022/09/04 10:31:17;;;;;;;34.92;7.53;;;;;;;;;;5075015;28;20481;-62
2022/09/04 10:33:59;;;;;;;25.42;5.88;;;;;;;;;;5073536;28;20032;-60
2022/09/04 10:36:48;;;;;;;44.97;7.97;;;;;;;;;;5076350;28;20045;-60
2022/09/04 10:42:08;;;;;;;22.20;5.85;;;;;;;;;;5076843;28;20481;-60
2022/09/04 10:44:34;;;;;;;20.27;5.85;;;;;;;;;;5081231;28;20070;-60
2022/09/04 10:47:00;;;;;;;40.80;8.15;;;;;;;;;;5075420;28;20066;-59
2022/09/04 10:49:42;;;;;;;27.08;6.60;;;;;;;;;;5074810;28;20087;-60
2022/09/04 10:52:23;;;;;;;30.60;6.25;;;;;;;;;;5077245;28;20139;-60
2022/09/04 10:55:02;;;;;;;19.58;6.18;;;;;;;;;;5077174;28;20068;-60
2022/09/04 10:57:38;;;;;;;31.88;6.88;;;;;;;;;;5076555;28;20070;-60
2022/09/04 11:00:07;;;;;;;25.73;6.22;;;;;;;;;;5076994;28;20086;-60
2022/09/04 11:02:55;;;;;;;24.35;6.35;;;;;;;;;;5077026;28;20042;-60
2022/09/04 11:05:41;;;;;;;14.88;5.28;;;;;;;;;;4971253;28;20468;-60
2022/09/04 11:08:15;;;;;;;26.27;6.45;;;;;;;;;;4971344;28;20074;-60
2022/09/04 11:11:02;;;;;;;26.73;6.65;;;;;;;;;;4970929;28;20058;-59
2022/09/04 11:13:47;;;;;;;21.27;5.78;;;;;;;;;;4970202;28;20134;-60
2022/09/04 11:16:32;;;;;;;26.77;6.32;;;;;;;;;;4970650;28;20549;-60
2022/09/04 11:19:27;;;;;;;156.10;12.95;;;;;;;;;;4970601;28;20066;-60
2022/09/04 11:22:02;;;;;;;24.30;6.30;;;;;;;;;;4971324;28;20499;-61
2022/09/04 11:24:34;;;;;;;63.70;7.63;;;;;;;;;;4969997;28;20053;-60
2022/09/04 11:27:00;;;;;;;45.53;7.82;;;;;;;;;;4969047;28;20047;-60
2022/09/04 11:29:40;;;;;;;15.25;4.90;;;;;;;;;;4969892;28;20142;-61
2022/09/04 11:32:06;;;;;;;;;;;;;;;;;;4969887;28;20034;-60
2022/09/04 11:34:39;;;;;;;92.38;9.63;;;;;;;;;;4970263;28;20025;-62
2022/09/04 11:37:23;;;;;;;73.40;8.63;;;;;;;;;;4969361;28;20059;-62
2022/09/04 11:39:52;;;;;;;20.77;5.75;;;;;;;;;;4967420;28;20082;-61
2022/09/04 11:42:27;;;;;;;23.30;5.20;;;;;;;;;;5010864;28;20061;-61
2022/09/04 11:45:06;;;;;;;40.15;7.60;;;;;;;;;;5070414;28;20485;-61
2022/09/04 11:47:51;;;;;;;20.30;5.70;;;;;;;;;;5074895;28;20044;-58
2022/09/04 11:50:21;;;;;;;19.90;4.75;;;;;;;;;;5076343;28;20491;-58
2022/09/04 11:52:54;;;;;;;16.88;4.75;;;;;;;;;;5072201;28;20045;-58
2022/09/04 11:55:32;;;;;;;31.58;6.65;;;;;;;;;;5074822;28;20040;-58
2022/09/04 11:58:08;;;;;;;37.33;6.30;;;;;;;;;;5075277;28;20058;-58
2022/09/04 12:00:46;;;;;;;31.58;6.22;;;;;;;;;;5075649;28;20064;-60
2022/09/04 12:03:12;;;;;;;13.80;3.67;;;;;;;;;;5075470;28;20037;-60
2022/09/04 12:05:57;;;;;;;47.15;7.38;;;;;;;;;;5075395;28;20040;-59
2022/09/04 12:08:42;;;;;;;25.73;5.72;;;;;;;;;;5075833;28;20071;-59
2022/09/04 12:11:09;;;;;;;30.77;6.10;;;;;;;;;;5074678;28;20047;-57
2022/09/04 12:14:07;;;;;;;15.35;4.53;;;;;;;;;;5073057;28;20112;-58
2022/09/04 12:16:52;;;;;;;19.75;4.70;;;;;;;;;;5007676;28;20065;-58
2022/09/04 12:19:31;;;;;;;17.70;4.53;;;;;;;;;;5010930;28;20414;-59
2022/09/04 12:22:16;;;;;;;35.83;6.38;;;;;;;;;;5012281;28;20049;-58
2022/09/04 12:24:54;;;;;;;58.72;7.20;;;;;;;;;;5007635;28;20562;-58
2022/09/04 12:27:41;;;;;;;37.53;5.88;;;;;;;;;;5009404;28;20144;-60
2022/09/04 12:30:07;;;;;;;35.15;6.60;;;;;;;;;;5005802;28;20170;-59
2022/09/04 12:32:36;;;;;;;24.67;5.50;;;;;;;;;;5012667;28;20042;-58
2022/09/04 12:35:23;;;;;;;33.30;6.18;;;;;;;;;;5010685;28;20042;-58
2022/09/04 12:37:56;;;;;;;36.05;5.90;;;;;;;;;;5008587;28;20535;-59
2022/09/04 12:40:25;;;;;;;59.55;6.93;;;;;;;;;;5009299;28;20062;-61
2022/09/04 12:43:01;;;;;;;42.60;5.90;;;;;;;;;;5008607;28;20061;-60
2022/09/04 12:45:39;;;;;;;33.55;6.82;;;;;;;;;;5009306;28;20798;-62
2022/09/04 12:48:10;;;;;;;21.58;4.90;;;;;;;;;;5009366;28;20126;-63
2022/09/04 12:50:37;;;;;;;20.85;5.03;;;;;;;;;;5009812;28;20046;-62
2022/09/04 12:53:24;;;;;;;38.03;7.00;;;;;;;;;;5040298;28;20560;-64
2022/09/04 12:55:59;;;;;;;40.72;7.13;;;;;;;;;;5068772;28;20509;-63
2022/09/04 12:58:30;;;;;;;34.90;6.30;;;;;;;;;;5069052;28;20051;-63
2022/09/04 13:01:09;;;;;;;25.55;5.18;;;;;;;;;;5069630;28;20052;-62
2022/09/04 13:03:47;;;;;;;24.02;4.90;;;;;;;;;;5069759;28;20461;-61
2022/09/04 13:06:19;;;;;;;18.48;4.93;;;;;;;;;;5071839;28;20115;-61
2022/09/04 13:08:54;;;;;;;21.77;5.60;;;;;;;;;;5070070;28;20040;-61
2022/09/04 13:11:41;;;;;;;20.27;5.68;;;;;;;;;;5069200;28;20062;-60
2022/09/04 13:14:08;;;;;;;112.88;10.95;;;;;;;;;;5070530;28;20114;-60
2022/09/04 13:16:45;;;;;;;72.68;9.23;;;;;;;;;;5070435;28;20043;-60
2022/09/04 13:19:12;;;;;;;21.23;5.53;;;;;;;;;;5071825;28;20037;-59
2022/09/04 13:21:47;;;;;;;35.38;6.85;;;;;;;;;;5073154;28;20108;-58
2022/09/04 13:24:18;;;;;;;19.88;5.07;;;;;;;;;;5071382;28;20052;-61
2022/09/04 13:26:45;;;;;;;28.25;5.95;;;;;;;;;;5060099;28;20055;-58
2022/09/04 13:29:32;;;;;;;16.08;4.43;;;;;;;;;;5072686;28;20059;-61
2022/09/04 13:32:11;;;;;;;48.42;7.18;;;;;;;;;;5071352;28;20041;-58
2022/09/04 13:34:58;;;;;;;18.35;4.63;;;;;;;;;;5070844;28;20041;-58
2022/09/04 13:37:48;;;;;;;29.48;5.97;;;;;;;;;;5072531;28;20052;-58
2022/09/04 13:40:18;;;;;;;22.10;6.03;;;;;;;;;;5073337;28;20068;-58
2022/09/04 13:43:03;;;;;;;29.45;5.60;;;;;;;;;;5073488;28;20047;-58
2022/09/04 13:45:45;;;;;;;57.72;8.32;;;;;;;;;;5073214;28;20039;-58
2022/09/04 13:48:15;;;;;;;18.38;4.43;;;;;;;;;;5068785;28;20068;-58
2022/09/04 13:50:44;;;;;;;19.20;4.70;;;;;;;;;;5071356;28;20437;-59
2022/09/04 13:53:15;;;;;;;35.40;6.22;;;;;;;;;;5070563;28;20569;-59
2022/09/04 13:55:47;;;;;;;33.13;5.45;;;;;;;;;;5069282;28;20152;-60
2022/09/04 13:58:18;;;;;;;33.88;5.95;;;;;;;;;;5071434;28;20246;-58
2022/09/04 14:00:57;;;;;;;96.72;9.32;;;;;;;;;;5072328;28;20036;-58
2022/09/04 14:03:33;;;;;;;18.77;4.53;;;;;;;;;;5072943;28;20048;-58
2022/09/04 14:06:01;;;;;;;34.72;5.97;;;;;;;;;;5073461;28;20040;-58
2022/09/04 14:08:30;;;;;;;24.70;6.00;;;;;;;;;;5073097;28;20044;-58
2022/09/04 14:11:05;;;;;;;84.25;10.60;;;;;;;;;;5070486;28;20036;-58
2022/09/04 14:13:40;;;;;;;27.10;5.57;;;;;;;;;;5071066;28;20385;-58
2022/09/04 14:16:08;;;;;;;25.15;5.35;;;;;;;;;;5073724;28;20060;-58
2022/09/04 14:18:41;;;;;;;15.27;4.25;;;;;;;;;;5073337;28;20045;-58
2022/09/04 14:21:11;;;;;;;30.05;5.75;;;;;;;;;;5073382;28;20035;-58
2022/09/04 14:23:46;;;;;;;49.88;8.13;;;;;;;;;;5072964;28;20124;-58
2022/09/04 14:26:26;;;;;;;18.88;5.00;;;;;;;;;;5073256;28;20449;-58
2022/09/04 14:29:03;;;;;;;50.58;7.88;;;;;;;;;;5073499;28;20123;-58
2022/09/04 14:31:34;;;;;;;17.50;4.35;;;;;;;;;;5072006;28;20400;-58
2022/09/04 14:34:12;;;;;;;32.40;5.93;;;;;;;;;;5073018;28;20045;-60
2022/09/04 14:36:55;;;;;;;15.20;4.57;;;;;;;;;;5073268;28;20036;-61
2022/09/04 14:39:42;;;;;;;35.13;6.40;;;;;;;;;;5071296;28;20420;-58
2022/09/04 14:42:10;;;;;;;167.00;13.57;;;;;;;;;;5055019;28;20402;-61
2022/09/04 14:44:46;;;;;;;57.45;8.25;;;;;;;;;;5067785;28;20040;-59
2022/09/04 14:47:24;;;;;;;26.25;5.53;;;;;;;;;;5072391;28;20046;-60
2022/09/04 14:49:54;;;;;;;57.88;8.13;;;;;;;;;;5068980;28;20047;-60
2022/09/04 14:52:28;;;;;;;36.00;6.00;;;;;;;;;;5071861;28;20127;-60
2022/09/04 14:54:56;;;;;;;27.73;5.30;;;;;;;;;;5071006;28;20044;-59
2022/09/04 14:57:26;;;;;;;22.25;4.43;;;;;;;;;;5072490;28;20124;-59
2022/09/04 15:00:08;;;;;;;32.47;5.85;;;;;;;;;;5072592;28;20397;-61
2022/09/04 15:02:38;;;;;;;36.13;6.28;;;;;;;;;;5073297;28;20487;-60
2022/09/04 15:05:14;;;;;;;29.40;5.90;;;;;;;;;;5071341;28;20047;-60
2022/09/04 15:07:40;;;;;;;24.90;4.90;;;;;;;;;;5069648;28;20041;-59
2022/09/04 15:10:17;;;;;;;31.13;5.78;;;;;;;;;;5071007;28;20068;-58
2022/09/04 15:12:57;;;;;;;25.92;5.15;;;;;;;;;;5070118;28;20119;-58
2022/09/04 15:15:34;;;;;;;20.50;4.63;;;;;;;;;;5076644;28;20135;-58
2022/09/04 15:18:14;;;;;;;27.58;5.78;;;;;;;;;;5076330;28;20045;-57
2022/09/04 15:21:01;;;;;;;13.23;4.35;;;;;;;;;;5076761;28;20033;-58
2022/09/04 15:23:43;;;;;;;36.10;6.18;;;;;;;;;;4970624;28;20047;-58
2022/09/04 15:26:16;;;;;;;17.08;4.53;;;;;;;;;;4970730;28;20067;-58